sensor_id;sensor_type;location;lat;lon;timestamp;P1;durP1;ratioP1;P2;durP2;ratioP2
26191;SDS011;13935;55.672;37.764;2023-04-25T04:06:02;28.35;;;17.50;;
26191;SDS011;13935;55.672;37.764;2023-04-25T04:07:09;28.33;;;16.73;;
26191;SDS011;13935;55.672;37.764;2023-04-25T04:08:15;22.67;;;16.15;;
26191;SDS011;13935;55.672;37.764;2023-04-25T04:09:20;23.20;;;15.50;;
26191;SDS011;13935;55.672;37.764;2023-04-25T04:10:28;28.25;;;15.60;;
26191;SDS011;13935;55.672;37.764;2023-04-25T04:11:36;25.42;;;16.10;;
26191;SDS011;13935;55.672;37.764;2023-04-25T04:12:41;26.42;;;15.45;;
26191;SDS011;13935;55.672;37.764;2023-04-25T04:13:44;24.90;;;15.98;;
26191;SDS011;13935;55.672;37.764;2023-04-25T04:14:46;26.27;;;16.65;;
26191;SDS011;13935;55.672;37.764;2023-04-25T04:15:48;22.95;;;15.52;;
26191;SDS011;13935;55.672;37.764;2023-04-25T04:16:51;27.58;;;15.38;;
26191;SDS011;13935;55.672;37.764;2023-04-25T04:17:54;22.65;;;16.58;;
26191;SDS011;13935;55.672;37.764;2023-04-25T04:18:56;26.55;;;15.88;;
26191;SDS011;13935;55.672;37.764;2023-04-25T04:19:59;24.13;;;15.82;;
26191;SDS011;13935;55.672;37.764;2023-04-25T04:21:04;23.33;;;17.02;;
26191;SDS011;13935;55.672;37.764;2023-04-25T04:22:10;24.67;;;15.60;;
26191;SDS011;13935;55.672;37.764;2023-04-25T04:23:14;22.90;;;16.05;;
26191;SDS011;13935;55.672;37.764;2023-04-25T04:24:22;22.85;;;15.50;;
26191;SDS011;13935;55.672;37.764;2023-04-25T04:25:40;27.90;;;16.52;;
26191;SDS011;13935;55.672;37.764;2023-04-25T04:27:06;26.70;;;17.15;;
26191;SDS011;13935;55.672;37.764;2023-04-25T04:28:18;25.83;;;16.23;;
26191;SDS011;13935;55.672;37.764;2023-04-25T04:29:33;26.25;;;16.27;;
26191;SDS011;13935;55.672;37.764;2023-04-25T04:30:42;23.25;;;17.10;;
26191;SDS011;13935;55.672;37.764;2023-04-25T04:31:58;28.58;;;16.05;;
26191;SDS011;13935;55.672;37.764;2023-04-25T04:33:03;23.15;;;16.05;;
26191;SDS011;13935;55.672;37.764;2023-04-25T04:34:12;25.50;;;16.38;;
26191;SDS011;13935;55.672;37.764;2023-04-25T04:35:15;21.65;;;16.55;;
26191;SDS011;13935;55.672;37.764;2023-04-25T04:36:22;25.95;;;16.80;;
26191;SDS011;13935;55.672;37.764;2023-04-25T04:37:26;24.27;;;16.67;;
26191;SDS011;13935;55.672;37.764;2023-04-25T04:38:36;28.13;;;16.38;;
26191;SDS011;13935;55.672;37.764;2023-04-25T04:41:32;26.77;;;17.05;;
26191;SDS011;13935;55.672;37.764;2023-04-25T04:42:53;22.75;;;16.48;;
26191;SDS011;13935;55.672;37.764;2023-04-25T04:44:22;29.42;;;17.15;;
26191;SDS011;13935;55.672;37.764;2023-04-25T04:46:02;21.50;;;16.25;;
26191;SDS011;13935;55.672;37.764;2023-04-25T04:47:16;20.27;;;15.82;;
26191;SDS011;13935;55.672;37.764;2023-04-25T04:48:50;25.50;;;16.05;;
26191;SDS011;13935;55.672;37.764;2023-04-25T04:50:10;21.17;;;15.43;;
26191;SDS011;13935;55.672;37.764;2023-04-25T04:51:30;23.58;;;15.68;;
26191;SDS011;13935;55.672;37.764;2023-04-25T04:52:51;22.73;;;16.50;;
26191;SDS011;13935;55.672;37.764;2023-04-25T04:54:12;20.92;;;15.65;;
26191;SDS011;13935;55.672;37.764;2023-04-25T04:55:26;20.50;;;15.55;;
26191;SDS011;13935;55.672;37.764;2023-04-25T04:56:43;27.55;;;15.15;;
26191;SDS011;13935;55.672;37.764;2023-04-25T04:58:28;17.80;;;15.30;;
26191;SDS011;13935;55.672;37.764;2023-04-25T05:00:08;20.58;;;15.02;;
26191;SDS011;13935;55.672;37.764;2023-04-25T05:01:50;18.95;;;14.65;;
26191;SDS011;13935;55.672;37.764;2023-04-25T05:03:32;21.77;;;14.85;;
26191;SDS011;13935;55.672;37.764;2023-04-25T05:04:55;24.40;;;14.80;;
26191;SDS011;13935;55.672;37.764;2023-04-25T05:06:16;20.58;;;14.07;;
26191;SDS011;13935;55.672;37.764;2023-04-25T05:07:41;19.20;;;14.02;;
26191;SDS011;13935;55.672;37.764;2023-04-25T05:09:38;23.73;;;13.80;;
26191;SDS011;13935;55.672;37.764;2023-04-25T05:10:58;18.63;;;14.18;;
26191;SDS011;13935;55.672;37.764;2023-04-25T05:12:24;22.20;;;14.77;;
26191;SDS011;13935;55.672;37.764;2023-04-25T05:13:52;20.05;;;13.68;;
26191;SDS011;13935;55.672;37.764;2023-04-25T05:15:14;21.92;;;13.30;;
26191;SDS011;13935;55.672;37.764;2023-04-25T05:16:32;20.02;;;13.80;;
26191;SDS011;13935;55.672;37.764;2023-04-25T05:17:55;20.70;;;13.50;;
26191;SDS011;13935;55.672;37.764;2023-04-25T05:19:22;21.15;;;13.27;;
26191;SDS011;13935;55.672;37.764;2023-04-25T05:20:45;17.02;;;13.25;;
26191;SDS011;13935;55.672;37.764;2023-04-25T05:21:51;19.42;;;12.73;;
26191;SDS011;13935;55.672;37.764;2023-04-25T05:23:17;15.95;;;13.73;;
26191;SDS011;13935;55.672;37.764;2023-04-25T05:24:49;22.95;;;12.98;;
26191;SDS011;13935;55.672;37.764;2023-04-25T05:26:22;17.70;;;13.25;;
26191;SDS011;13935;55.672;37.764;2023-04-25T05:27:36;17.13;;;13.10;;
26191;SDS011;13935;55.672;37.764;2023-04-25T05:28:52;19.60;;;13.20;;
26191;SDS011;13935;55.672;37.764;2023-04-25T05:30:13;22.45;;;14.52;;
26191;SDS011;13935;55.672;37.764;2023-04-25T05:31:40;19.90;;;14.20;;
26191;SDS011;13935;55.672;37.764;2023-04-25T05:32:45;19.35;;;13.82;;
26191;SDS011;13935;55.672;37.764;2023-04-25T05:33:48;20.50;;;13.10;;
26191;SDS011;13935;55.672;37.764;2023-04-25T05:34:52;18.63;;;13.00;;
26191;SDS011;13935;55.672;37.764;2023-04-25T05:35:59;16.65;;;12.55;;
26191;SDS011;13935;55.672;37.764;2023-04-25T05:37:02;21.40;;;13.13;;
26191;SDS011;13935;55.672;37.764;2023-04-25T05:38:05;20.15;;;13.35;;
26191;SDS011;13935;55.672;37.764;2023-04-25T05:39:25;18.92;;;12.93;;
26191;SDS011;13935;55.672;37.764;2023-04-25T05:40:59;16.98;;;12.90;;
26191;SDS011;13935;55.672;37.764;2023-04-25T05:43:31;14.43;;;12.90;;
26191;SDS011;13935;55.672;37.764;2023-04-25T05:44:54;16.35;;;12.68;;
26191;SDS011;13935;55.672;37.764;2023-04-25T05:46:05;15.82;;;13.05;;
26191;SDS011;13935;55.672;37.764;2023-04-25T05:47:19;16.95;;;11.93;;
26191;SDS011;13935;55.672;37.764;2023-04-25T05:48:58;18.58;;;12.88;;
26191;SDS011;13935;55.672;37.764;2023-04-25T05:50:23;17.27;;;12.68;;
26191;SDS011;13935;55.672;37.764;2023-04-25T05:51:33;18.55;;;12.68;;
26191;SDS011;13935;55.672;37.764;2023-04-25T05:53:03;17.15;;;12.35;;
26191;SDS011;13935;55.672;37.764;2023-04-25T05:54:13;17.58;;;11.68;;
26191;SDS011;13935;55.672;37.764;2023-04-25T05:55:15;17.83;;;12.45;;
26191;SDS011;13935;55.672;37.764;2023-04-25T05:56:17;17.25;;;11.70;;
26191;SDS011;13935;55.672;37.764;2023-04-25T05:57:23;20.38;;;11.73;;
26191;SDS011;13935;55.672;37.764;2023-04-25T05:58:28;17.83;;;11.50;;
26191;SDS011;13935;55.672;37.764;2023-04-25T05:59:32;15.88;;;11.55;;
26191;SDS011;13935;55.672;37.764;2023-04-25T06:00:34;18.33;;;12.25;;
26191;SDS011;13935;55.672;37.764;2023-04-25T06:01:36;17.48;;;11.80;;
26191;SDS011;13935;55.672;37.764;2023-04-25T06:02:38;17.60;;;11.18;;
26191;SDS011;13935;55.672;37.764;2023-04-25T06:03:50;14.20;;;10.63;;
26191;SDS011;13935;55.672;37.764;2023-04-25T06:05:00;14.77;;;10.63;;
26191;SDS011;13935;55.672;37.764;2023-04-25T06:06:05;18.35;;;11.25;;
26191;SDS011;13935;55.672;37.764;2023-04-25T06:07:08;27.30;;;11.35;;
26191;SDS011;13935;55.672;37.764;2023-04-25T06:08:10;16.92;;;10.70;;
26191;SDS011;13935;55.672;37.764;2023-04-25T06:09:12;15.75;;;12.60;;
26191;SDS011;13935;55.672;37.764;2023-04-25T06:10:18;21.17;;;16.55;;
26191;SDS011;13935;55.672;37.764;2023-04-25T06:11:20;19.58;;;13.00;;
26191;SDS011;13935;55.672;37.764;2023-04-25T06:12:21;17.70;;;10.20;;
26191;SDS011;13935;55.672;37.764;2023-04-25T06:13:25;14.85;;;9.55;;
26191;SDS011;13935;55.672;37.764;2023-04-25T06:14:42;14.57;;;9.48;;
26191;SDS011;13935;55.672;37.764;2023-04-25T06:16:05;18.33;;;9.75;;
26191;SDS011;13935;55.672;37.764;2023-04-25T06:17:08;14.82;;;9.32;;
26191;SDS011;13935;55.672;37.764;2023-04-25T06:18:30;10.25;;;8.90;;
26191;SDS011;13935;55.672;37.764;2023-04-25T06:19:35;14.15;;;9.20;;
26191;SDS011;13935;55.672;37.764;2023-04-25T06:20:57;11.55;;;8.05;;
26191;SDS011;13935;55.672;37.764;2023-04-25T06:22:10;14.73;;;7.82;;
26191;SDS011;13935;55.672;37.764;2023-04-25T06:23:19;14.82;;;8.40;;
26191;SDS011;13935;55.672;37.764;2023-04-25T06:24:46;14.68;;;8.57;;
26191;SDS011;13935;55.672;37.764;2023-04-25T06:25:49;12.48;;;8.80;;
26191;SDS011;13935;55.672;37.764;2023-04-25T06:26:51;14.68;;;8.88;;
26191;SDS011;13935;55.672;37.764;2023-04-25T06:27:54;10.75;;;8.02;;
26191;SDS011;13935;55.672;37.764;2023-04-25T06:28:56;15.70;;;7.75;;
26191;SDS011;13935;55.672;37.764;2023-04-25T06:29:58;13.90;;;7.40;;
26191;SDS011;13935;55.672;37.764;2023-04-25T06:31:00;11.02;;;6.90;;
26191;SDS011;13935;55.672;37.764;2023-04-25T06:32:04;10.90;;;7.32;;
26191;SDS011;13935;55.672;37.764;2023-04-25T06:33:06;12.38;;;7.65;;
26191;SDS011;13935;55.672;37.764;2023-04-25T06:34:10;10.45;;;7.28;;
26191;SDS011;13935;55.672;37.764;2023-04-25T06:35:14;12.18;;;7.43;;
26191;SDS011;13935;55.672;37.764;2023-04-25T06:36:16;11.25;;;6.43;;
26191;SDS011;13935;55.672;37.764;2023-04-25T06:37:21;14.70;;;7.13;;
26191;SDS011;13935;55.672;37.764;2023-04-25T06:38:40;13.02;;;6.88;;
26191;SDS011;13935;55.672;37.764;2023-04-25T06:39:42;11.02;;;6.55;;
26191;SDS011;13935;55.672;37.764;2023-04-25T06:40:45;10.77;;;6.82;;
26191;SDS011;13935;55.672;37.764;2023-04-25T06:41:47;12.77;;;6.88;;
26191;SDS011;13935;55.672;37.764;2023-04-25T06:43:08;12.20;;;7.30;;
26191;SDS011;13935;55.672;37.764;2023-04-25T06:44:31;12.70;;;8.65;;
26191;SDS011;13935;55.672;37.764;2023-04-25T06:45:33;12.25;;;7.78;;
26191;SDS011;13935;55.672;37.764;2023-04-25T06:46:36;12.95;;;7.72;;
26191;SDS011;13935;55.672;37.764;2023-04-25T06:47:39;14.82;;;7.20;;
26191;SDS011;13935;55.672;37.764;2023-04-25T06:48:47;14.60;;;7.72;;
26191;SDS011;13935;55.672;37.764;2023-04-25T06:49:50;9.80;;;6.70;;
26191;SDS011;13935;55.672;37.764;2023-04-25T06:51:04;12.18;;;7.38;;
26191;SDS011;13935;55.672;37.764;2023-04-25T06:52:15;14.13;;;7.50;;
26191;SDS011;13935;55.672;37.764;2023-04-25T06:53:19;16.70;;;7.72;;
26191;SDS011;13935;55.672;37.764;2023-04-25T06:54:27;13.27;;;6.90;;
26191;SDS011;13935;55.672;37.764;2023-04-25T06:55:38;11.48;;;7.20;;
26191;SDS011;13935;55.672;37.764;2023-04-25T06:57:03;12.23;;;6.50;;
26191;SDS011;13935;55.672;37.764;2023-04-25T06:58:27;14.25;;;7.10;;
26191;SDS011;13935;55.672;37.764;2023-04-25T06:59:46;11.65;;;6.78;;
26191;SDS011;13935;55.672;37.764;2023-04-25T07:00:48;14.95;;;7.20;;
26191;SDS011;13935;55.672;37.764;2023-04-25T07:01:52;16.13;;;7.32;;
26191;SDS011;13935;55.672;37.764;2023-04-25T07:03:04;16.98;;;7.68;;
26191;SDS011;13935;55.672;37.764;2023-04-25T07:04:12;12.93;;;7.45;;
26191;SDS011;13935;55.672;37.764;2023-04-25T07:05:20;13.40;;;6.97;;
26191;SDS011;13935;55.672;37.764;2023-04-25T07:06:22;11.73;;;7.35;;
26191;SDS011;13935;55.672;37.764;2023-04-25T07:07:34;16.73;;;7.45;;
26191;SDS011;13935;55.672;37.764;2023-04-25T07:08:36;15.95;;;7.70;;
26191;SDS011;13935;55.672;37.764;2023-04-25T07:09:38;18.75;;;7.38;;
26191;SDS011;13935;55.672;37.764;2023-04-25T07:10:43;18.77;;;7.35;;
26191;SDS011;13935;55.672;37.764;2023-04-25T07:12:06;15.90;;;7.32;;
26191;SDS011;13935;55.672;37.764;2023-04-25T07:13:08;17.17;;;7.05;;
26191;SDS011;13935;55.672;37.764;2023-04-25T07:14:12;15.20;;;7.05;;
26191;SDS011;13935;55.672;37.764;2023-04-25T07:15:14;14.23;;;7.47;;
26191;SDS011;13935;55.672;37.764;2023-04-25T07:16:19;12.70;;;6.53;;
26191;SDS011;13935;55.672;37.764;2023-04-25T07:17:21;11.43;;;6.10;;
26191;SDS011;13935;55.672;37.764;2023-04-25T07:18:29;10.70;;;5.38;;
26191;SDS011;13935;55.672;37.764;2023-04-25T07:19:32;10.63;;;5.60;;
26191;SDS011;13935;55.672;37.764;2023-04-25T07:20:46;14.00;;;5.80;;
26191;SDS011;13935;55.672;37.764;2023-04-25T07:21:48;12.05;;;6.40;;
26191;SDS011;13935;55.672;37.764;2023-04-25T07:23:01;11.60;;;6.10;;
26191;SDS011;13935;55.672;37.764;2023-04-25T07:24:03;14.20;;;6.30;;
26191;SDS011;13935;55.672;37.764;2023-04-25T07:25:15;15.27;;;6.20;;
26191;SDS011;13935;55.672;37.764;2023-04-25T07:26:18;14.45;;;6.65;;
26191;SDS011;13935;55.672;37.764;2023-04-25T07:27:58;20.20;;;7.07;;
26191;SDS011;13935;55.672;37.764;2023-04-25T07:29:21;13.38;;;5.80;;
26191;SDS011;13935;55.672;37.764;2023-04-25T07:30:24;16.70;;;6.13;;
26191;SDS011;13935;55.672;37.764;2023-04-25T07:31:28;10.98;;;5.88;;
26191;SDS011;13935;55.672;37.764;2023-04-25T07:32:40;11.60;;;5.97;;
26191;SDS011;13935;55.672;37.764;2023-04-25T07:33:42;9.90;;;5.25;;
26191;SDS011;13935;55.672;37.764;2023-04-25T07:34:44;8.93;;;5.40;;
26191;SDS011;13935;55.672;37.764;2023-04-25T07:35:46;11.32;;;6.53;;
26191;SDS011;13935;55.672;37.764;2023-04-25T07:36:49;14.68;;;6.18;;
26191;SDS011;13935;55.672;37.764;2023-04-25T07:38:01;10.85;;;5.90;;
26191;SDS011;13935;55.672;37.764;2023-04-25T07:39:08;11.18;;;6.10;;
26191;SDS011;13935;55.672;37.764;2023-04-25T07:40:11;13.70;;;6.05;;
26191;SDS011;13935;55.672;37.764;2023-04-25T07:41:20;10.43;;;6.25;;
26191;SDS011;13935;55.672;37.764;2023-04-25T07:42:22;9.68;;;5.80;;
26191;SDS011;13935;55.672;37.764;2023-04-25T07:43:25;11.65;;;6.03;;
26191;SDS011;13935;55.672;37.764;2023-04-25T07:44:32;13.15;;;5.82;;
26191;SDS011;13935;55.672;37.764;2023-04-25T07:45:45;16.48;;;6.22;;
26191;SDS011;13935;55.672;37.764;2023-04-25T07:46:50;13.27;;;5.90;;
26191;SDS011;13935;55.672;37.764;2023-04-25T07:47:59;16.75;;;6.43;;
26191;SDS011;13935;55.672;37.764;2023-04-25T07:49:03;15.10;;;6.72;;
26191;SDS011;13935;55.672;37.764;2023-04-25T07:50:16;10.63;;;6.38;;
26191;SDS011;13935;55.672;37.764;2023-04-25T07:51:18;13.27;;;6.55;;
26191;SDS011;13935;55.672;37.764;2023-04-25T07:52:22;13.77;;;6.57;;
26191;SDS011;13935;55.672;37.764;2023-04-25T07:53:34;12.07;;;6.10;;
26191;SDS011;13935;55.672;37.764;2023-04-25T07:54:52;14.07;;;6.82;;
26191;SDS011;13935;55.672;37.764;2023-04-25T07:56:02;11.73;;;5.95;;
26191;SDS011;13935;55.672;37.764;2023-04-25T07:57:07;9.93;;;5.75;;
26191;SDS011;13935;55.672;37.764;2023-04-25T07:58:11;9.93;;;6.40;;
26191;SDS011;13935;55.672;37.764;2023-04-25T07:59:20;15.98;;;6.72;;
26191;SDS011;13935;55.672;37.764;2023-04-25T08:00:23;13.00;;;7.72;;
26191;SDS011;13935;55.672;37.764;2023-04-25T08:01:36;10.30;;;7.38;;
26191;SDS011;13935;55.672;37.764;2023-04-25T08:02:51;8.73;;;6.35;;
26191;SDS011;13935;55.672;37.764;2023-04-25T08:03:54;11.75;;;6.68;;
26191;SDS011;13935;55.672;37.764;2023-04-25T08:05:22;12.30;;;6.07;;
26191;SDS011;13935;55.672;37.764;2023-04-25T08:06:33;14.05;;;6.35;;
26191;SDS011;13935;55.672;37.764;2023-04-25T08:07:55;12.93;;;6.20;;
26191;SDS011;13935;55.672;37.764;2023-04-25T08:08:58;16.08;;;6.38;;
26191;SDS011;13935;55.672;37.764;2023-04-25T08:10:07;15.35;;;6.35;;
26191;SDS011;13935;55.672;37.764;2023-04-25T08:11:10;15.10;;;6.70;;
26191;SDS011;13935;55.672;37.764;2023-04-25T08:12:19;11.13;;;5.65;;
26191;SDS011;13935;55.672;37.764;2023-04-25T08:13:24;12.68;;;5.60;;
26191;SDS011;13935;55.672;37.764;2023-04-25T08:14:33;12.30;;;6.05;;
26191;SDS011;13935;55.672;37.764;2023-04-25T08:15:44;13.18;;;6.20;;
26191;SDS011;13935;55.672;37.764;2023-04-25T08:16:46;8.10;;;5.50;;
26191;SDS011;13935;55.672;37.764;2023-04-25T08:17:49;11.63;;;5.75;;
26191;SDS011;13935;55.672;37.764;2023-04-25T08:18:51;11.38;;;6.18;;
26191;SDS011;13935;55.672;37.764;2023-04-25T08:20:04;10.00;;;5.95;;
26191;SDS011;13935;55.672;37.764;2023-04-25T08:21:08;8.88;;;6.72;;
26191;SDS011;13935;55.672;37.764;2023-04-25T08:22:12;12.45;;;6.25;;
26191;SDS011;13935;55.672;37.764;2023-04-25T08:23:30;15.20;;;6.35;;
26191;SDS011;13935;55.672;37.764;2023-04-25T08:24:57;12.73;;;6.28;;
26191;SDS011;13935;55.672;37.764;2023-04-25T08:25:59;13.45;;;6.55;;
26191;SDS011;13935;55.672;37.764;2023-04-25T08:27:02;14.77;;;6.65;;
26191;SDS011;13935;55.672;37.764;2023-04-25T08:28:05;12.13;;;5.97;;
26191;SDS011;13935;55.672;37.764;2023-04-25T08:29:17;11.55;;;6.53;;
26191;SDS011;13935;55.672;37.764;2023-04-25T08:30:22;13.02;;;6.22;;
26191;SDS011;13935;55.672;37.764;2023-04-25T08:31:35;14.93;;;6.00;;
26191;SDS011;13935;55.672;37.764;2023-04-25T08:32:38;15.40;;;6.63;;
26191;SDS011;13935;55.672;37.764;2023-04-25T08:34:09;16.75;;;6.28;;
26191;SDS011;13935;55.672;37.764;2023-04-25T08:35:31;12.35;;;6.68;;
26191;SDS011;13935;55.672;37.764;2023-04-25T08:36:45;13.90;;;6.13;;
26191;SDS011;13935;55.672;37.764;2023-04-25T08:38:12;11.27;;;6.03;;
26191;SDS011;13935;55.672;37.764;2023-04-25T08:39:14;8.20;;;5.85;;
26191;SDS011;13935;55.672;37.764;2023-04-25T08:40:30;12.35;;;5.40;;
26191;SDS011;13935;55.672;37.764;2023-04-25T08:41:46;12.15;;;5.35;;
26191;SDS011;13935;55.672;37.764;2023-04-25T08:42:48;12.10;;;5.15;;
26191;SDS011;13935;55.672;37.764;2023-04-25T08:43:52;9.02;;;4.55;;
26191;SDS011;13935;55.672;37.764;2023-04-25T08:44:58;8.95;;;4.05;;
26191;SDS011;13935;55.672;37.764;2023-04-25T08:46:09;6.10;;;3.92;;
26191;SDS011;13935;55.672;37.764;2023-04-25T08:47:26;6.53;;;4.30;;
26191;SDS011;13935;55.672;37.764;2023-04-25T08:48:32;8.20;;;4.35;;
26191;SDS011;13935;55.672;37.764;2023-04-25T08:49:38;8.32;;;4.25;;
26191;SDS011;13935;55.672;37.764;2023-04-25T08:50:50;10.60;;;4.25;;
26191;SDS011;13935;55.672;37.764;2023-04-25T08:51:54;7.72;;;3.78;;
26191;SDS011;13935;55.672;37.764;2023-04-25T08:53:01;8.07;;;4.07;;
26191;SDS011;13935;55.672;37.764;2023-04-25T08:54:14;9.40;;;4.25;;
26191;SDS011;13935;55.672;37.764;2023-04-25T08:55:37;8.18;;;4.55;;
26191;SDS011;13935;55.672;37.764;2023-04-25T08:56:49;7.43;;;4.05;;
26191;SDS011;13935;55.672;37.764;2023-04-25T08:57:51;7.88;;;3.28;;
26191;SDS011;13935;55.672;37.764;2023-04-25T08:58:54;7.00;;;4.10;;
26191;SDS011;13935;55.672;37.764;2023-04-25T09:00:04;8.73;;;4.50;;
26191;SDS011;13935;55.672;37.764;2023-04-25T09:01:20;5.80;;;3.95;;
26191;SDS011;13935;55.672;37.764;2023-04-25T09:02:26;9.23;;;4.53;;
26191;SDS011;13935;55.672;37.764;2023-04-25T09:03:29;7.32;;;4.63;;
26191;SDS011;13935;55.672;37.764;2023-04-25T09:04:31;7.10;;;3.80;;
26191;SDS011;13935;55.672;37.764;2023-04-25T09:05:43;7.00;;;4.43;;
26191;SDS011;13935;55.672;37.764;2023-04-25T09:06:49;5.97;;;4.13;;
26191;SDS011;13935;55.672;37.764;2023-04-25T09:07:52;8.95;;;4.75;;
26191;SDS011;13935;55.672;37.764;2023-04-25T09:08:54;7.35;;;5.13;;
26191;SDS011;13935;55.672;37.764;2023-04-25T09:09:56;7.40;;;5.30;;
26191;SDS011;13935;55.672;37.764;2023-04-25T09:11:04;9.63;;;5.00;;
26191;SDS011;13935;55.672;37.764;2023-04-25T09:12:06;9.02;;;5.40;;
26191;SDS011;13935;55.672;37.764;2023-04-25T09:13:09;7.05;;;4.63;;
26191;SDS011;13935;55.672;37.764;2023-04-25T09:15:06;11.40;;;5.05;;
26191;SDS011;13935;55.672;37.764;2023-04-25T09:16:37;9.25;;;4.75;;
26191;SDS011;13935;55.672;37.764;2023-04-25T09:18:27;9.77;;;5.60;;
26191;SDS011;13935;55.672;37.764;2023-04-25T09:19:42;10.10;;;4.85;;
26191;SDS011;13935;55.672;37.764;2023-04-25T09:21:25;8.63;;;5.25;;
26191;SDS011;13935;55.672;37.764;2023-04-25T09:22:24;8.75;;;5.35;;
26191;SDS011;13935;55.672;37.764;2023-04-25T09:23:26;7.90;;;5.88;;
26191;SDS011;13935;55.672;37.764;2023-04-25T09:24:32;13.40;;;6.40;;
26191;SDS011;13935;55.672;37.764;2023-04-25T09:25:36;11.55;;;6.45;;
26191;SDS011;13935;55.672;37.764;2023-04-25T09:26:42;12.32;;;6.72;;
26191;SDS011;13935;55.672;37.764;2023-04-25T09:27:52;12.65;;;7.50;;
26191;SDS011;13935;55.672;37.764;2023-04-25T09:29:12;12.68;;;7.38;;
26191;SDS011;13935;55.672;37.764;2023-04-25T09:30:33;11.77;;;7.20;;
26191;SDS011;13935;55.672;37.764;2023-04-25T09:33:33;13.48;;;6.70;;
26191;SDS011;13935;55.672;37.764;2023-04-25T09:34:56;10.38;;;6.38;;
26191;SDS011;13935;55.672;37.764;2023-04-25T09:36:23;10.48;;;6.57;;
26191;SDS011;13935;55.672;37.764;2023-04-25T09:37:51;9.13;;;4.60;;
26191;SDS011;13935;55.672;37.764;2023-04-25T09:39:19;9.83;;;5.43;;
26191;SDS011;13935;55.672;37.764;2023-04-25T09:40:45;7.30;;;4.53;;
26191;SDS011;13935;55.672;37.764;2023-04-25T09:41:57;13.00;;;5.20;;
26191;SDS011;13935;55.672;37.764;2023-04-25T09:43:00;12.23;;;5.30;;
26191;SDS011;13935;55.672;37.764;2023-04-25T09:44:02;12.80;;;5.18;;
26191;SDS011;13935;55.672;37.764;2023-04-25T09:45:24;8.30;;;4.50;;
26191;SDS011;13935;55.672;37.764;2023-04-25T09:46:32;8.13;;;4.43;;
26191;SDS011;13935;55.672;37.764;2023-04-25T09:47:50;6.65;;;4.07;;
26191;SDS011;13935;55.672;37.764;2023-04-25T09:49:05;8.90;;;4.50;;
26191;SDS011;13935;55.672;37.764;2023-04-25T09:50:51;8.32;;;4.40;;
26191;SDS011;13935;55.672;37.764;2023-04-25T09:52:09;11.50;;;4.72;;
26191;SDS011;13935;55.672;37.764;2023-04-25T09:53:57;10.40;;;4.28;;
26191;SDS011;13935;55.672;37.764;2023-04-25T09:55:10;8.73;;;4.72;;
26191;SDS011;13935;55.672;37.764;2023-04-25T09:56:16;12.30;;;4.85;;
26191;SDS011;13935;55.672;37.764;2023-04-25T09:57:18;9.43;;;4.57;;
26191;SDS011;13935;55.672;37.764;2023-04-25T09:58:32;6.00;;;4.68;;
26191;SDS011;13935;55.672;37.764;2023-04-25T09:59:42;8.25;;;4.43;;
26191;SDS011;13935;55.672;37.764;2023-04-25T10:00:48;6.88;;;4.30;;
26191;SDS011;13935;55.672;37.764;2023-04-25T10:02:08;6.70;;;3.85;;
26191;SDS011;13935;55.672;37.764;2023-04-25T10:03:13;10.98;;;4.50;;
26191;SDS011;13935;55.672;37.764;2023-04-25T10:04:30;8.50;;;4.30;;
26191;SDS011;13935;55.672;37.764;2023-04-25T10:05:44;8.25;;;4.30;;
26191;SDS011;13935;55.672;37.764;2023-04-25T10:06:48;9.57;;;4.72;;
26191;SDS011;13935;55.672;37.764;2023-04-25T10:07:58;6.25;;;3.95;;
26191;SDS011;13935;55.672;37.764;2023-04-25T10:09:04;10.77;;;4.78;;
26191;SDS011;13935;55.672;37.764;2023-04-25T10:10:14;9.75;;;4.70;;
26191;SDS011;13935;55.672;37.764;2023-04-25T10:11:24;6.70;;;4.32;;
26191;SDS011;13935;55.672;37.764;2023-04-25T10:12:27;8.18;;;4.40;;
26191;SDS011;13935;55.672;37.764;2023-04-25T10:13:32;12.43;;;4.35;;
26191;SDS011;13935;55.672;37.764;2023-04-25T10:14:38;10.40;;;4.40;;
26191;SDS011;13935;55.672;37.764;2023-04-25T10:15:47;9.27;;;4.63;;
26191;SDS011;13935;55.672;37.764;2023-04-25T10:16:52;8.60;;;4.55;;
26191;SDS011;13935;55.672;37.764;2023-04-25T10:17:56;12.63;;;4.53;;
26191;SDS011;13935;55.672;37.764;2023-04-25T10:18:58;7.93;;;3.67;;
26191;SDS011;13935;55.672;37.764;2023-04-25T10:20:10;7.38;;;4.40;;
26191;SDS011;13935;55.672;37.764;2023-04-25T10:21:23;8.70;;;4.40;;
26191;SDS011;13935;55.672;37.764;2023-04-25T10:22:36;9.23;;;4.70;;
26191;SDS011;13935;55.672;37.764;2023-04-25T10:23:40;7.38;;;4.35;;
26191;SDS011;13935;55.672;37.764;2023-04-25T10:24:43;13.77;;;8.20;;
26191;SDS011;13935;55.672;37.764;2023-04-25T10:25:49;8.88;;;4.25;;
26191;SDS011;13935;55.672;37.764;2023-04-25T10:26:52;9.07;;;4.10;;
26191;SDS011;13935;55.672;37.764;2023-04-25T10:27:54;8.65;;;4.57;;
26191;SDS011;13935;55.672;37.764;2023-04-25T10:29:00;8.23;;;4.60;;
26191;SDS011;13935;55.672;37.764;2023-04-25T10:30:09;9.65;;;4.50;;
26191;SDS011;13935;55.672;37.764;2023-04-25T10:31:17;8.55;;;4.35;;
26191;SDS011;13935;55.672;37.764;2023-04-25T10:32:24;10.73;;;4.80;;
26191;SDS011;13935;55.672;37.764;2023-04-25T10:33:35;10.68;;;5.57;;
26191;SDS011;13935;55.672;37.764;2023-04-25T10:34:42;10.63;;;5.32;;
26191;SDS011;13935;55.672;37.764;2023-04-25T10:35:54;8.10;;;5.18;;
26191;SDS011;13935;55.672;37.764;2023-04-25T10:36:59;11.10;;;5.05;;
26191;SDS011;13935;55.672;37.764;2023-04-25T10:38:15;7.53;;;4.93;;
26191;SDS011;13935;55.672;37.764;2023-04-25T10:39:23;11.95;;;5.32;;
26191;SDS011;13935;55.672;37.764;2023-04-25T10:40:28;9.50;;;5.57;;
26191;SDS011;13935;55.672;37.764;2023-04-25T10:41:55;8.27;;;4.60;;
26191;SDS011;13935;55.672;37.764;2023-04-25T10:44:37;12.55;;;4.60;;
26191;SDS011;13935;55.672;37.764;2023-04-25T10:45:53;9.50;;;5.00;;
26191;SDS011;13935;55.672;37.764;2023-04-25T10:46:59;10.73;;;5.10;;
26191;SDS011;13935;55.672;37.764;2023-04-25T10:48:02;8.93;;;4.90;;
26191;SDS011;13935;55.672;37.764;2023-04-25T10:49:04;10.38;;;5.72;;
26191;SDS011;13935;55.672;37.764;2023-04-25T10:50:07;9.40;;;4.75;;
26191;SDS011;13935;55.672;37.764;2023-04-25T10:51:11;9.98;;;5.13;;
26191;SDS011;13935;55.672;37.764;2023-04-25T10:52:18;9.05;;;5.15;;
26191;SDS011;13935;55.672;37.764;2023-04-25T10:53:20;9.45;;;4.55;;
26191;SDS011;13935;55.672;37.764;2023-04-25T10:54:26;8.52;;;3.92;;
26191;SDS011;13935;55.672;37.764;2023-04-25T10:55:48;9.50;;;4.10;;
26191;SDS011;13935;55.672;37.764;2023-04-25T10:56:51;7.57;;;3.88;;
26191;SDS011;13935;55.672;37.764;2023-04-25T10:57:54;9.35;;;3.80;;
26191;SDS011;13935;55.672;37.764;2023-04-25T10:59:06;7.28;;;4.00;;
26191;SDS011;13935;55.672;37.764;2023-04-25T11:00:15;9.05;;;5.05;;
26191;SDS011;13935;55.672;37.764;2023-04-25T11:01:21;7.88;;;4.10;;
26191;SDS011;13935;55.672;37.764;2023-04-25T11:02:27;10.82;;;4.00;;
26191;SDS011;13935;55.672;37.764;2023-04-25T11:03:30;6.80;;;4.03;;
26191;SDS011;13935;55.672;37.764;2023-04-25T11:04:33;7.50;;;3.72;;
26191;SDS011;13935;55.672;37.764;2023-04-25T11:05:36;8.48;;;3.90;;
26191;SDS011;13935;55.672;37.764;2023-04-25T11:07:09;8.80;;;3.60;;
26191;SDS011;13935;55.672;37.764;2023-04-25T11:08:11;8.57;;;3.83;;